Time;durP1;ratioP1;P1;durP2;ratioP2;P2;SDS_P1;SDS_P2;PMS_P1;PMS_P2;Temp;Humidity;BMP_temperature;BMP_pressure;BME280_temperature;BME280_humidity;BME280_pressure;Samples;Min_cycle;Max_cycle;Signal;HPM_P1;HPM_P2
2022/03/04 00:02:06;;;;;;;25.60;10.68;;;5.70;99.90;;;;;;5043165;28;20442;-64
2022/03/04 00:04:34;;;;;;;25.13;11.13;;;5.60;99.90;;;;;;5045059;28;20029;-67
2022/03/04 00:07:00;;;;;;;25.85;10.27;;;5.60;99.90;;;;;;5031689;28;20044;-66
2022/03/04 00:09:26;;;;;;;25.85;10.75;;;5.60;99.90;;;;;;5037883;28;20426;-68
2022/03/04 00:11:52;;;;;;;25.02;10.85;;;5.60;99.90;;;;;;5040787;28;20112;-64
2022/03/04 00:14:19;;;;;;;24.35;10.32;;;5.50;99.90;;;;;;5029825;28;20108;-67
2022/03/04 00:16:46;;;;;;;23.38;10.38;;;5.50;99.90;;;;;;5036651;28;20041;-64
2022/03/04 00:19:12;;;;;;;25.58;10.98;;;5.50;99.90;;;;;;5028680;28;20029;-63
2022/03/04 00:21:44;;;;;;;28.95;12.00;;;5.50;99.90;;;;;;5027724;28;20091;-65
2022/03/04 00:24:11;;;;;;;;;;;5.50;99.90;;;;;;5034364;28;20558;-65
2022/03/04 00:26:39;;;;;;;26.98;10.57;;;5.40;99.90;;;;;;5032448;28;20352;-64
2022/03/04 00:29:05;;;;;;;25.02;10.35;;;5.40;99.90;;;;;;5034071;28;20053;-64
2022/03/04 00:31:32;;;;;;;25.77;10.68;;;5.30;99.90;;;;;;5033501;28;20118;-64
2022/03/04 00:33:58;;;;;;;23.80;10.52;;;5.30;99.90;;;;;;5036938;28;20488;-63
2022/03/04 00:36:24;;;;;;;24.20;10.32;;;5.30;99.90;;;;;;5034477;28;20101;-63
2022/03/04 00:38:50;;;;;;;23.98;10.68;;;5.30;99.90;;;;;;5047124;28;20052;-63
2022/03/04 00:41:20;;;;;;;27.20;11.25;;;5.30;99.90;;;;;;5034623;28;20037;-63
2022/03/04 00:43:46;;;;;;;24.90;11.13;;;5.20;99.90;;;;;;5035289;28;20091;-63
2022/03/04 00:46:13;;;;;;;25.92;10.90;;;5.20;99.90;;;;;;5033074;28;20022;-63
2022/03/04 00:48:39;;;;;;;26.10;11.63;;;5.20;99.90;;;;;;5044305;28;20031;-63
2022/03/04 00:51:05;;;;;;;23.83;9.48;;;5.20;99.90;;;;;;5047468;28;20036;-62
2022/03/04 00:53:30;;;;;;;29.33;11.82;;;5.20;99.90;;;;;;5040274;28;20041;-65
2022/03/04 00:55:57;;;;;;;28.83;11.02;;;5.10;99.90;;;;;;5034979;28;20029;-66
2022/03/04 00:58:22;;;;;;;26.30;10.90;;;5.10;99.90;;;;;;5040823;28;20029;-67
2022/03/04 01:00:48;;;;;;;29.08;11.55;;;5.10;99.90;;;;;;5040855;28;20049;-64
2022/03/04 01:03:14;;;;;;;25.83;10.50;;;5.10;99.90;;;;;;5025970;28;20034;-64
2022/03/04 01:05:39;;;;;;;25.10;10.35;;;5.10;99.90;;;;;;5036035;28;20112;-65
2022/03/04 01:08:05;;;;;;;25.20;11.73;;;5.00;99.90;;;;;;5034320;28;20374;-66
2022/03/04 01:10:31;;;;;;;27.60;10.70;;;5.00;99.90;;;;;;5051575;28;20035;-65
2022/03/04 01:12:56;;;;;;;26.58;11.32;;;4.90;99.90;;;;;;5043391;28;20480;-66
2022/03/04 01:15:22;;;;;;;23.45;10.45;;;4.90;99.90;;;;;;5044488;28;20035;-64
2022/03/04 01:17:48;;;;;;;23.73;10.27;;;4.90;99.90;;;;;;5049433;28;20385;-67
2022/03/04 01:20:14;;;;;;;24.98;10.20;;;4.90;99.90;;;;;;5045800;28;20495;-66
2022/03/04 01:22:40;;;;;;;25.88;10.45;;;4.90;99.90;;;;;;5033756;28;20156;-65
2022/03/04 01:25:06;;;;;;;26.15;10.85;;;4.80;99.90;;;;;;5029401;28;20028;-66
2022/03/04 01:27:32;;;;;;;26.50;10.48;;;4.80;99.90;;;;;;5033696;28;20035;-65
2022/03/04 01:29:57;;;;;;;24.27;10.35;;;4.90;99.90;;;;;;5034703;28;20025;-67
2022/03/04 01:32:24;;;;;;;25.33;9.88;;;4.90;99.90;;;;;;5037606;28;20047;-66
2022/03/04 01:34:49;;;;;;;23.65;10.50;;;4.90;99.90;;;;;;5033132;28;20116;-65
2022/03/04 01:37:15;;;;;;;26.08;10.48;;;4.80;99.90;;;;;;5033050;28;20025;-67
2022/03/04 01:39:41;;;;;;;26.73;10.85;;;4.90;99.90;;;;;;5031493;28;20358;-66
2022/03/04 01:42:07;;;;;;;27.60;11.50;;;4.80;99.90;;;;;;5034904;28;20044;-63
2022/03/04 01:44:33;;;;;;;26.52;11.65;;;4.90;99.90;;;;;;5033112;28;20033;-63
2022/03/04 01:46:59;;;;;;;25.25;11.25;;;4.90;99.90;;;;;;5030184;28;20047;-64
2022/03/04 01:49:24;;;;;;;26.98;11.38;;;4.80;99.90;;;;;;5027189;28;20029;-64
2022/03/04 01:51:50;;;;;;;25.73;12.13;;;4.80;99.90;;;;;;5035430;28;20041;-64
2022/03/04 01:54:15;;;;;;;24.25;10.73;;;4.80;99.90;;;;;;5026944;28;20071;-64
2022/03/04 01:56:41;;;;;;;25.15;10.85;;;4.80;99.90;;;;;;5039763;28;20025;-63
2022/03/04 01:59:07;;;;;;;26.60;10.95;;;4.80;99.90;;;;;;5049201;28;20029;-63
2022/03/04 02:01:34;;;;;;;29.02;11.48;;;4.70;99.90;;;;;;5037275;28;20512;-64
2022/03/04 02:04:00;;;;;;;29.02;10.90;;;4.70;99.90;;;;;;5047326;28;20029;-67
2022/03/04 02:06:25;;;;;;;23.85;10.75;;;4.70;99.90;;;;;;5037698;28;20025;-64
2022/03/04 02:08:51;;;;;;;26.95;11.07;;;4.70;99.90;;;;;;5043333;28;20036;-67
2022/03/04 02:11:17;;;;;;;27.23;10.93;;;4.70;99.90;;;;;;5042820;28;20036;-64
2022/03/04 02:13:43;;;;;;;25.65;10.07;;;4.70;99.90;;;;;;5036128;28;20461;-66
2022/03/04 02:16:34;;;;;;;28.83;11.32;;;4.60;99.90;;;;;;5035616;28;20067;-67
2022/03/04 02:19:00;;;;;;;28.38;12.70;;;4.60;99.90;;;;;;5026777;28;20184;-65
2022/03/04 02:21:27;;;;;;;27.55;11.13;;;4.50;99.90;;;;;;5042968;28;20120;-66
2022/03/04 02:23:52;;;;;;;23.70;11.18;;;4.50;99.90;;;;;;5047965;28;20049;-65
2022/03/04 02:26:18;;;;;;;24.15;11.30;;;4.50;99.90;;;;;;5046805;28;20041;-63
2022/03/04 02:28:45;;;;;;;25.75;11.23;;;4.50;99.90;;;;;;5034833;28;20033;-63
2022/03/04 02:31:21;;;;;;;27.15;11.02;;;4.40;99.90;;;;;;5038131;28;20037;-67
2022/03/04 02:33:48;;;;;;;28.67;11.02;;;4.40;99.90;;;;;;5043654;28;20437;-63
2022/03/04 02:36:14;;;;;;;28.10;10.57;;;4.40;99.90;;;;;;5036388;28;20028;-63
2022/03/04 02:38:40;;;;;;;29.25;12.25;;;4.40;99.90;;;;;;5044675;28;20040;-65
2022/03/04 02:41:06;;;;;;;26.75;10.90;;;4.30;99.90;;;;;;5045944;28;20040;-68
2022/03/04 02:43:32;;;;;;;25.75;10.77;;;4.30;99.90;;;;;;5049444;28;20112;-66
2022/03/04 02:45:58;;;;;;;27.65;11.40;;;4.30;99.90;;;;;;5048946;28;20112;-69
2022/03/04 02:48:23;;;;;;;25.75;11.15;;;4.30;99.90;;;;;;5036458;28;20549;-67
2022/03/04 02:50:49;;;;;;;27.08;11.50;;;4.20;99.90;;;;;;5054504;28;20032;-67
2022/03/04 02:53:15;;;;;;;25.65;11.52;;;4.20;99.90;;;;;;5048232;28;20047;-65
2022/03/04 02:55:40;;;;;;;28.33;11.55;;;4.20;99.90;;;;;;5049476;28;20389;-64
2022/03/04 02:58:06;;;;;;;25.45;10.80;;;4.20;99.90;;;;;;5046310;28;20618;-64
2022/03/04 03:00:32;;;;;;;25.85;11.07;;;4.20;99.90;;;;;;5043005;28;20037;-63
2022/03/04 03:02:57;;;;;;;25.60;10.80;;;4.20;99.90;;;;;;5045487;28;20061;-66
2022/03/04 03:05:24;;;;;;;27.95;12.57;;;4.10;99.90;;;;;;5042690;28;20095;-66
2022/03/04 03:07:49;;;;;;;28.55;10.73;;;4.10;99.90;;;;;;5040959;28;20466;-66
2022/03/04 03:10:15;;;;;;;26.95;11.18;;;4.10;99.90;;;;;;5038287;28;20036;-66
2022/03/04 03:12:41;;;;;;;28.00;11.10;;;4.10;99.90;;;;;;5035628;28;20060;-63
2022/03/04 03:15:08;;;;;;;30.33;11.88;;;4.00;99.90;;;;;;5048432;28;20024;-67
2022/03/04 03:17:34;;;;;;;26.42;11.20;;;4.10;99.90;;;;;;5046522;28;20029;-62
2022/03/04 03:20:00;;;;;;;27.02;12.02;;;4.00;99.90;;;;;;5038748;28;20084;-65
2022/03/04 03:22:26;;;;;;;27.17;11.65;;;4.00;99.90;;;;;;5051198;28;20033;-63
2022/03/04 03:24:52;;;;;;;28.60;11.70;;;4.00;99.90;;;;;;5041793;28;20048;-64
2022/03/04 03:27:18;;;;;;;27.88;11.93;;;4.00;99.90;;;;;;5050477;28;20029;-67
2022/03/04 03:29:44;;;;;;;26.98;10.88;;;4.00;99.90;;;;;;5044949;28;20079;-64
2022/03/04 03:32:11;;;;;;;25.67;10.43;;;4.00;99.90;;;;;;5042551;28;20059;-64
2022/03/04 03:34:38;;;;;;;24.80;11.43;;;4.00;99.90;;;;;;5041261;28;20029;-64
2022/03/04 03:37:05;;;;;;;28.90;12.10;;;4.00;99.90;;;;;;5038794;28;20022;-66
2022/03/04 03:39:31;;;;;;;27.27;11.40;;;4.00;99.90;;;;;;5047986;28;20484;-64
2022/03/04 03:41:56;;;;;;;26.83;11.23;;;4.00;99.90;;;;;;5049729;28;20036;-66
2022/03/04 03:44:22;;;;;;;27.02;11.77;;;4.00;99.90;;;;;;5047838;28;20048;-65
2022/03/04 03:46:47;;;;;;;31.60;11.48;;;4.00;99.90;;;;;;5051817;28;20137;-65
2022/03/04 03:49:13;;;;;;;29.63;12.38;;;3.90;99.90;;;;;;5044028;28;20045;-64
2022/03/04 03:51:39;;;;;;;27.73;11.68;;;3.90;99.90;;;;;;5039620;28;20402;-69
2022/03/04 03:54:04;;;;;;;28.13;11.80;;;3.90;99.90;;;;;;5040401;28;20026;-65
2022/03/04 03:56:30;;;;;;;26.63;12.10;;;3.90;99.90;;;;;;5038651;28;20557;-67
2022/03/04 03:58:56;;;;;;;26.08;11.15;;;3.90;99.90;;;;;;5048911;28;20029;-64
2022/03/04 04:01:21;;;;;;;26.17;11.27;;;3.80;99.90;;;;;;5038588;28;20366;-65
2022/03/04 04:03:47;;;;;;;29.88;11.50;;;3.80;99.90;;;;;;5045360;28;20029;-67
2022/03/04 04:06:13;;;;;;;31.73;11.88;;;3.80;99.90;;;;;;5043542;28;20873;-65
2022/03/04 04:08:38;;;;;;;25.70;10.98;;;3.70;99.90;;;;;;5050458;28;20048;-66
2022/03/04 04:11:04;;;;;;;28.38;12.23;;;3.70;99.90;;;;;;5026306;28;20121;-66
2022/03/04 04:13:30;;;;;;;30.20;11.85;;;3.70;99.90;;;;;;5048237;28;20039;-66
2022/03/04 04:15:55;;;;;;;27.48;11.55;;;3.70;99.90;;;;;;5049304;28;20033;-64
2022/03/04 04:18:23;;;;;;;26.20;11.50;;;3.70;99.90;;;;;;5046716;28;20043;-64
2022/03/04 04:20:49;;;;;;;26.05;11.45;;;3.70;99.90;;;;;;5034276;28;20068;-64
2022/03/04 04:23:14;;;;;;;30.13;12.23;;;3.70;99.90;;;;;;5032029;28;20077;-63
2022/03/04 04:25:40;;;;;;;24.85;11.13;;;3.60;99.90;;;;;;5037702;28;20033;-64
2022/03/04 04:28:06;;;;;;;29.52;12.10;;;3.60;99.90;;;;;;5032399;28;20037;-64
2022/03/04 04:30:31;;;;;;;28.08;11.63;;;3.60;99.90;;;;;;5033267;28;20084;-64
2022/03/04 04:32:57;;;;;;;27.95;11.93;;;3.60;99.90;;;;;;5034028;28;20025;-64
2022/03/04 04:35:23;;;;;;;28.45;12.32;;;3.50;99.90;;;;;;5033495;28;20105;-64
2022/03/04 04:37:48;;;;;;;28.50;12.88;;;3.50;99.90;;;;;;5033547;28;20473;-63
2022/03/04 04:40:14;;;;;;;29.58;11.40;;;3.50;99.90;;;;;;5034534;28;20040;-64
2022/03/04 04:42:40;;;;;;;27.35;12.35;;;3.40;99.90;;;;;;5032671;28;20626;-63
2022/03/04 04:45:07;;;;;;;26.95;11.43;;;3.40;99.90;;;;;;5037210;28;20029;-64
2022/03/04 04:47:33;;;;;;;27.08;12.15;;;3.30;99.90;;;;;;5038824;28;20171;-64
2022/03/04 04:49:59;;;;;;;27.10;11.60;;;3.30;99.90;;;;;;5039725;28;20528;-64
2022/03/04 04:52:24;;;;;;;27.05;10.98;;;3.30;99.90;;;;;;5039392;28;21128;-64
2022/03/04 04:54:50;;;;;;;30.35;12.55;;;3.20;99.90;;;;;;5042376;28;20025;-64
2022/03/04 04:57:15;;;;;;;29.75;11.98;;;3.20;99.90;;;;;;5041486;28;20036;-64
2022/03/04 04:59:41;;;;;;;26.40;11.85;;;3.20;99.90;;;;;;5043046;28;20039;-64
2022/03/04 05:02:06;;;;;;;29.30;11.93;;;3.10;99.90;;;;;;5030741;28;20041;-64
2022/03/04 05:04:32;;;;;;;31.58;13.05;;;3.10;99.90;;;;;;5032934;28;20033;-64
2022/03/04 05:06:58;;;;;;;26.75;12.40;;;3.10;99.90;;;;;;5032549;28;20025;-64
2022/03/04 05:09:24;;;;;;;26.20;11.55;;;3.10;99.90;;;;;;5033097;28;20569;-64
2022/03/04 05:11:49;;;;;;;26.73;11.60;;;3.00;99.90;;;;;;5031765;28;20037;-64
2022/03/04 05:14:15;;;;;;;28.42;11.90;;;3.00;99.90;;;;;;5032614;28;20064;-64
2022/03/04 05:16:41;;;;;;;27.90;11.95;;;3.00;99.90;;;;;;5031436;28;20505;-64
2022/03/04 05:19:06;;;;;;;31.58;12.93;;;2.90;99.90;;;;;;5032176;28;20108;-63
2022/03/04 05:21:32;;;;;;;30.50;12.70;;;2.90;99.90;;;;;;5031320;28;20125;-63
2022/03/04 05:24:01;;;;;;;27.80;11.80;;;2.90;99.90;;;;;;5031892;28;20046;-63
2022/03/04 05:26:30;;;;;;;32.83;13.32;;;2.90;99.90;;;;;;5032126;28;20109;-63
2022/03/04 05:28:57;;;;;;;30.67;14.05;;;2.80;99.90;;;;;;5032437;28;20052;-63
2022/03/04 05:31:23;;;;;;;33.33;13.85;;;2.90;99.90;;;;;;5032097;28;20135;-64
2022/03/04 05:33:50;;;;;;;31.65;13.15;;;2.80;99.90;;;;;;5040553;28;20037;-64
2022/03/04 05:36:16;;;;;;;30.27;12.77;;;2.80;99.90;;;;;;5036773;28;20026;-64
2022/03/04 05:38:42;;;;;;;29.60;12.65;;;2.80;99.90;;;;;;5033093;28;20080;-64
2022/03/04 05:41:07;;;;;;;32.08;12.88;;;2.80;99.90;;;;;;5032409;28;20044;-64
2022/03/04 05:43:33;;;;;;;29.80;12.70;;;2.80;99.90;;;;;;5031525;28;20035;-63
2022/03/04 05:45:59;;;;;;;34.03;12.30;;;2.80;99.90;;;;;;5032142;28;20028;-63
2022/03/04 05:48:25;;;;;;;31.15;13.55;;;2.70;99.90;;;;;;5032847;28;20050;-63
2022/03/04 05:50:50;;;;;;;28.13;12.55;;;2.70;99.90;;;;;;5032260;28;20122;-64
2022/03/04 05:53:16;;;;;;;30.65;12.32;;;2.70;99.90;;;;;;5030807;28;20112;-63
2022/03/04 05:55:42;;;;;;;31.33;12.63;;;2.70;99.90;;;;;;5031268;28;20465;-63
2022/03/04 05:58:07;;;;;;;30.73;12.88;;;2.70;99.90;;;;;;5031062;28;20036;-63
2022/03/04 06:00:33;;;;;;;29.98;13.45;;;2.60;99.90;;;;;;5031148;28;20053;-63
2022/03/04 06:02:58;;;;;;;32.25;13.32;;;2.60;99.90;;;;;;5031885;28;20377;-63
2022/03/04 06:05:24;;;;;;;31.42;12.70;;;2.70;99.90;;;;;;5031346;28;20088;-64
2022/03/04 06:07:50;;;;;;;32.35;13.13;;;2.60;99.90;;;;;;5031095;28;20033;-64
2022/03/04 06:10:15;;;;;;;30.38;12.35;;;2.70;99.90;;;;;;5031441;28;20069;-63
2022/03/04 06:12:41;;;;;;;35.33;13.45;;;2.60;99.90;;;;;;5031658;28;20048;-64
2022/03/04 06:15:07;;;;;;;29.58;12.98;;;2.60;99.90;;;;;;5034140;28;20500;-64
2022/03/04 06:17:33;;;;;;;27.15;13.30;;;2.70;99.90;;;;;;5033806;28;20388;-64
2022/03/04 06:19:58;;;;;;;30.75;12.95;;;2.70;99.90;;;;;;5035134;28;20033;-68
2022/03/04 06:22:24;;;;;;;34.22;14.43;;;2.70;99.90;;;;;;5035794;28;20049;-67
2022/03/04 06:24:49;;;;;;;30.83;13.75;;;2.60;99.90;;;;;;5035590;28;20163;-65
2022/03/04 06:27:15;;;;;;;27.63;13.38;;;2.70;99.90;;;;;;5035543;28;20469;-68
2022/03/04 06:29:41;;;;;;;29.42;11.73;;;2.60;99.90;;;;;;5034683;28;20477;-66
2022/03/04 06:32:07;;;;;;;32.90;13.85;;;2.60;99.90;;;;;;5035660;28;20029;-66
2022/03/04 06:34:34;;;;;;;32.08;13.63;;;2.60;99.90;;;;;;5035793;28;20037;-66
2022/03/04 06:36:59;;;;;;;27.30;12.98;;;2.60;99.90;;;;;;5035348;28;20026;-67
2022/03/04 06:39:25;;;;;;;27.23;13.48;;;2.60;99.90;;;;;;5033931;28;20068;-65
2022/03/04 06:41:51;;;;;;;27.58;12.73;;;2.60;99.90;;;;;;5035582;28;20132;-64
2022/03/04 06:44:16;;;;;;;31.98;12.77;;;2.70;99.90;;;;;;5035700;28;20029;-68
2022/03/04 06:46:42;;;;;;;30.67;14.55;;;2.70;99.90;;;;;;5035454;28;20477;-64
2022/03/04 06:49:10;;;;;;;28.25;13.30;;;2.70;99.90;;;;;;5033907;28;20492;-68
2022/03/04 06:51:39;;;;;;;32.22;13.15;;;2.70;99.90;;;;;;5033258;28;20040;-66
2022/03/04 06:54:06;;;;;;;27.85;12.63;;;2.70;99.90;;;;;;5034399;28;20033;-64
2022/03/04 06:56:32;;;;;;;31.52;13.73;;;2.80;99.90;;;;;;5035496;28;20513;-66
2022/03/04 06:58:58;;;;;;;31.00;13.15;;;2.80;99.90;;;;;;5033801;28;20112;-67
2022/03/04 07:01:23;;;;;;;28.83;12.98;;;2.80;99.90;;;;;;5034094;28;20709;-65
2022/03/04 07:03:49;;;;;;;32.03;13.02;;;2.80;99.90;;;;;;5034302;28;20560;-65
2022/03/04 07:06:16;;;;;;;29.00;12.32;;;2.80;99.90;;;;;;5034277;28;20082;-67
2022/03/04 07:08:42;;;;;;;29.70;13.32;;;2.90;99.90;;;;;;5035494;28;20038;-64
2022/03/04 07:11:08;;;;;;;34.00;14.27;;;3.00;99.90;;;;;;5034476;28;20061;-67
2022/03/04 07:13:34;;;;;;;31.95;13.93;;;3.00;99.90;;;;;;5034313;28;20041;-67
2022/03/04 07:16:00;;;;;;;32.30;13.35;;;3.10;99.90;;;;;;5033338;28;20485;-64
2022/03/04 07:18:29;;;;;;;30.50;13.52;;;3.10;99.90;;;;;;5035413;28;20148;-67
2022/03/04 07:21:00;;;;;;;30.38;13.55;;;3.10;99.90;;;;;;5033428;28;20085;-65
2022/03/04 07:23:26;;;;;;;27.52;12.73;;;3.20;99.90;;;;;;5033960;28;20132;-66
2022/03/04 07:25:51;;;;;;;27.55;13.57;;;3.20;99.90;;;;;;5034387;28;20116;-68
2022/03/04 07:28:17;;;;;;;30.38;13.40;;;3.30;99.90;;;;;;5034445;28;20036;-66
2022/03/04 07:30:43;;;;;;;30.48;13.65;;;3.30;99.90;;;;;;5032734;28;20029;-66
2022/03/04 07:33:09;;;;;;;30.25;13.13;;;3.40;99.90;;;;;;5046583;28;20048;-67
2022/03/04 07:35:36;;;;;;;31.77;14.25;;;3.50;99.90;;;;;;5034680;28;20055;-63
2022/03/04 07:38:02;;;;;;;34.38;13.35;;;3.60;99.90;;;;;;5037763;28;20032;-66
2022/03/04 07:40:28;;;;;;;28.25;12.32;;;3.70;99.90;;;;;;5039500;28;20025;-66
2022/03/04 07:42:53;;;;;;;31.08;13.05;;;3.80;99.90;;;;;;5047330;28;20038;-65
2022/03/04 07:45:19;;;;;;;29.67;12.90;;;3.90;99.90;;;;;;5046888;28;20363;-66
2022/03/04 07:47:45;;;;;;;25.75;12.13;;;4.00;99.90;;;;;;5034848;28;20021;-64
2022/03/04 07:50:14;;;;;;;31.63;13.93;;;4.10;99.90;;;;;;5039040;28;20082;-65
2022/03/04 07:52:41;;;;;;;28.70;12.70;;;4.20;99.90;;;;;;5034034;28;20472;-68
2022/03/04 07:55:11;;;;;;;26.92;12.38;;;4.30;99.90;;;;;;5035533;28;20030;-65
2022/03/04 07:57:37;;;;;;;26.35;11.50;;;4.40;99.90;;;;;;5033983;28;20041;-67
2022/03/04 08:00:08;;;;;;;28.35;12.82;;;4.50;99.90;;;;;;5049162;28;20024;-66
2022/03/04 08:02:34;;;;;;;26.27;11.57;;;4.60;99.90;;;;;;5033700;28;20034;-67
2022/03/04 08:05:00;;;;;;;25.95;12.75;;;4.80;99.90;;;;;;5035123;28;20285;-68
2022/03/04 08:07:26;;;;;;;34.38;13.38;;;4.90;99.90;;;;;;5033299;28;20123;-66
2022/03/04 08:09:51;;;;;;;25.40;11.63;;;5.00;99.90;;;;;;5033486;28;20029;-67
2022/03/04 08:12:17;;;;;;;25.20;11.10;;;5.10;99.90;;;;;;5030106;28;20057;-67
2022/03/04 08:14:42;;;;;;;26.63;12.00;;;5.30;99.90;;;;;;5033221;28;20056;-64
2022/03/04 08:17:08;;;;;;;29.40;11.95;;;5.40;99.90;;;;;;5033931;28;20037;-67
2022/03/04 08:19:35;;;;;;;23.55;11.13;;;5.60;99.90;;;;;;5032387;28;20082;-64
2022/03/04 08:22:02;;;;;;;25.27;11.70;;;5.70;99.90;;;;;;5029753;28;20041;-68
2022/03/04 08:24:27;;;;;;;27.58;11.93;;;5.90;99.90;;;;;;5033698;28;20489;-65
2022/03/04 08:26:53;;;;;;;25.92;12.35;;;6.10;99.90;;;;;;5033544;28;20074;-67
2022/03/04 08:29:18;;;;;;;25.60;11.48;;;6.40;99.90;;;;;;5033774;28;20489;-65
2022/03/04 08:31:45;;;;;;;24.63;10.77;;;6.60;99.90;;;;;;5031565;28;20037;-63
2022/03/04 08:34:10;;;;;;;24.70;11.07;;;6.90;99.90;;;;;;5032211;28;20393;-65
2022/03/04 08:36:36;;;;;;;25.80;11.18;;;7.30;99.90;;;;;;5015688;28;20029;-66
2022/03/04 08:39:05;;;;;;;28.17;12.27;;;7.80;99.90;;;;;;5033509;28;20029;-67
2022/03/04 08:41:34;;;;;;;25.25;11.02;;;8.50;99.90;;;;;;5045270;28;20036;-65
2022/03/04 08:44:00;;;;;;;23.27;10.90;;;9.20;99.90;;;;;;5046181;28;20037;-65
2022/03/04 08:46:26;;;;;;;23.33;10.98;;;10.20;99.70;;;;;;5021049;28;20470;-65
2022/03/04 08:48:51;;;;;;;22.40;9.95;;;10.90;97.70;;;;;;5012957;28;20109;-66
2022/03/04 08:51:17;;;;;;;26.15;11.20;;;11.40;95.90;;;;;;5027178;28;20029;-64
2022/03/04 08:53:43;;;;;;;26.35;11.85;;;12.10;94.60;;;;;;5028269;28;20030;-68
2022/03/04 08:56:08;;;;;;;26.10;12.38;;;12.90;93.10;;;;;;5031898;28;20397;-67
2022/03/04 08:58:34;;;;;;;22.23;10.95;;;13.70;91.60;;;;;;5032955;28;20084;-64
2022/03/04 09:01:00;;;;;;;22.75;11.20;;;14.70;89.20;;;;;;5033103;28;20045;-66
2022/03/04 09:03:26;;;;;;;22.85;11.23;;;15.50;81.90;;;;;;5031654;28;20033;-64
2022/03/04 09:05:52;;;;;;;22.33;11.75;;;16.20;76.90;;;;;;5032741;28;20079;-66
2022/03/04 09:08:17;;;;;;;20.27;10.75;;;16.50;72.20;;;;;;5032837;28;20033;-67
2022/03/04 09:10:44;;;;;;;22.73;11.85;;;16.50;68.80;;;;;;5033281;28;20064;-61
2022/03/04 09:13:09;;;;;;;22.73;11.38;;;16.60;68.80;;;;;;5032556;28;20022;-64
2022/03/04 09:15:35;;;;;;;21.25;11.45;;;16.80;66.90;;;;;;5032913;28;20040;-62
2022/03/04 09:18:00;;;;;;;22.90;11.40;;;16.90;65.40;;;;;;5032830;28;20029;-64
2022/03/04 09:20:26;;;;;;;24.05;12.07;;;16.90;65.00;;;;;;5028346;28;20057;-69
2022/03/04 09:22:53;;;;;;;23.23;12.45;;;17.00;64.30;;;;;;5032211;28;20381;-65
2022/03/04 09:25:18;;;;;;;22.90;12.35;;;17.40;64.20;;;;;;5032694;28;20057;-66
2022/03/04 09:27:46;;;;;;;23.98;12.55;;;17.80;62.30;;;;;;5032861;28;20061;-65
2022/03/04 09:30:12;;;;;;;22.48;11.98;;;17.90;60.60;;;;;;5032682;28;20025;-63
2022/03/04 09:32:39;;;;;;;23.33;11.77;;;17.90;60.20;;;;;;5032777;28;20035;-65
2022/03/04 09:35:05;;;;;;;23.35;11.68;;;17.90;59.80;;;;;;5031963;28;20512;-64
2022/03/04 09:37:31;;;;;;;24.88;11.55;;;18.10;58.60;;;;;;5033081;28;20025;-63
2022/03/04 09:39:57;;;;;;;24.85;12.43;;;18.20;58.00;;;;;;5031892;28;20044;-67
2022/03/04 09:42:23;;;;;;;22.02;12.25;;;18.20;57.00;;;;;;5032489;28;20042;-64
2022/03/04 09:44:49;;;;;;;25.70;12.30;;;18.30;57.50;;;;;;5032194;28;20026;-67
2022/03/04 09:47:21;;;;;;;24.23;12.15;;;18.40;56.30;;;;;;5031971;28;20028;-62
2022/03/04 09:49:49;;;;;;;24.38;12.63;;;18.30;56.20;;;;;;5032598;28;20061;-66
2022/03/04 09:52:15;;;;;;;22.50;12.63;;;18.40;56.60;;;;;;5032305;28;20116;-66
2022/03/04 09:54:42;;;;;;;22.23;12.02;;;18.60;55.90;;;;;;5031175;28;20176;-63
2022/03/04 09:57:07;;;;;;;24.38;12.95;;;18.70;54.40;;;;;;5031375;28;20034;-64
2022/03/04 09:59:33;;;;;;;23.05;12.23;;;18.40;54.40;;;;;;5033075;28;20032;-64
2022/03/04 10:01:59;;;;;;;23.85;13.10;;;18.10;54.80;;;;;;5036554;28;20045;-64
2022/03/04 10:04:29;;;;;;;24.17;12.95;;;18.10;55.60;;;;;;5032532;28;20029;-66
2022/03/04 10:06:54;;;;;;;22.35;12.77;;;18.60;56.30;;;;;;5032036;28;20028;-63
2022/03/04 10:09:33;;;;;;;22.33;11.55;;;19.10;53.60;;;;;;5032345;28;20026;-64
2022/03/04 10:12:04;;;;;;;22.92;12.13;;;19.30;53.60;;;;;;5031863;28;20033;-64
2022/03/04 10:14:29;;;;;;;25.60;12.98;;;19.30;52.90;;;;;;5032360;28;20040;-68
2022/03/04 10:16:57;;;;;;;23.08;13.02;;;19.70;53.30;;;;;;5030734;28;20034;-66
2022/03/04 10:19:23;;;;;;;25.15;12.18;;;20.20;52.70;;;;;;5031857;28;20044;-65
2022/03/04 10:22:03;;;;;;;23.23;12.43;;;20.70;51.90;;;;;;5031678;28;20508;-63
2022/03/04 10:24:30;;;;;;;20.92;12.60;;;20.80;51.40;;;;;;5032262;28;20057;-65
2022/03/04 10:27:04;;;;;;;24.20;14.15;;;21.30;51.20;;;;;;5031319;28;20029;-66
2022/03/04 10:29:38;;;;;;;21.45;12.35;;;21.40;49.60;;;;;;5032487;28;20033;-67
2022/03/04 10:32:19;;;;;;;22.88;12.85;;;21.30;49.10;;;;;;5031154;28;20039;-67
2022/03/04 10:34:56;;;;;;;21.38;12.45;;;21.30;49.30;;;;;;5031431;28;20048;-67
2022/03/04 10:37:42;;;;;;;22.98;12.48;;;21.30;49.50;;;;;;5032505;28;20113;-64
2022/03/04 10:40:10;;;;;;;21.60;11.93;;;21.30;49.10;;;;;;5030737;28;20025;-66
2022/03/04 10:42:44;;;;;;;21.83;12.45;;;21.30;48.50;;;;;;5031490;28;20092;-65
2022/03/04 10:45:46;;;;;;;22.10;12.40;;;21.00;49.00;;;;;;5031926;28;20017;-64
2022/03/04 10:48:13;;;;;;;;;;;20.80;48.80;;;;;;5030773;28;20489;-64
2022/03/04 10:50:44;;;;;;;22.17;11.85;;;20.40;49.70;;;;;;5031021;28;20031;-66
2022/03/04 10:53:11;;;;;;;22.52;12.80;;;20.40;48.80;;;;;;5032579;28;20038;-69
2022/03/04 10:55:44;;;;;;;21.55;11.48;;;20.10;49.50;;;;;;5031783;28;20049;-63
2022/03/04 10:58:27;;;;;;;23.88;11.98;;;20.10;49.70;;;;;;5030291;28;20034;-64
2022/03/04 11:01:09;;;;;;;24.80;13.75;;;20.10;49.20;;;;;;5027272;28;20043;-62
2022/03/04 11:03:37;;;;;;;22.60;12.25;;;20.20;49.60;;;;;;5047377;28;20064;-63
2022/03/04 11:06:05;;;;;;;23.48;11.95;;;20.50;49.30;;;;;;5030250;28;20021;-64
2022/03/04 11:08:31;;;;;;;23.95;12.57;;;20.80;49.80;;;;;;5035553;28;20212;-64
2022/03/04 11:10:57;;;;;;;22.77;12.00;;;21.30;48.30;;;;;;5035709;28;20481;-64
2022/03/04 11:13:33;;;;;;;23.10;12.13;;;21.50;48.00;;;;;;5043102;28;20465;-65
2022/03/04 11:16:14;;;;;;;21.43;12.27;;;21.70;47.50;;;;;;5056358;28;20036;-68
2022/03/04 11:18:40;;;;;;;22.75;12.40;;;21.50;47.60;;;;;;5054354;28;20032;-65
2022/03/04 11:21:06;;;;;;;23.65;12.95;;;21.20;47.50;;;;;;5055411;28;20445;-68
2022/03/04 11:23:34;;;;;;;22.63;12.30;;;21.20;47.80;;;;;;5044046;28;20061;-67
2022/03/04 11:26:18;;;;;;;22.23;12.85;;;21.00;48.00;;;;;;5035553;28;20478;-65
2022/03/04 11:28:49;;;;;;;22.40;11.60;;;20.80;47.30;;;;;;5035640;28;20025;-65
2022/03/04 11:31:20;;;;;;;24.53;12.90;;;20.60;47.50;;;;;;5033876;28;20477;-64
2022/03/04 11:33:51;;;;;;;22.83;11.70;;;20.70;47.30;;;;;;5030838;28;20632;-65
2022/03/04 11:36:25;;;;;;;20.08;10.85;;;20.80;47.10;;;;;;5034931;28;20263;-64
2022/03/04 11:38:51;;;;;;;21.55;12.00;;;20.70;46.80;;;;;;5035782;28;20449;-64
2022/03/04 11:41:36;;;;;;;22.33;12.55;;;20.60;46.90;;;;;;5035463;28;20062;-65
2022/03/04 11:44:18;;;;;;;24.30;12.38;;;20.70;47.50;;;;;;5044116;28;20025;-65
2022/03/04 11:46:55;;;;;;;19.10;11.32;;;20.90;47.10;;;;;;5045407;28;20030;-64
2022/03/04 11:49:31;;;;;;;22.38;11.38;;;21.00;46.30;;;;;;5035896;28;20104;-65
2022/03/04 11:52:09;;;;;;;22.02;12.07;;;21.00;46.40;;;;;;5051123;28;20033;-65
2022/03/04 11:55:04;;;;;;;21.55;11.63;;;21.10;46.60;;;;;;5053743;28;20100;-64
2022/03/04 11:57:44;;;;;;;22.15;10.95;;;21.20;46.20;;;;;;5053800;28;20033;-64
2022/03/04 12:00:10;;;;;;;23.35;11.38;;;21.30;45.80;;;;;;5053720;28;20477;-64
2022/03/04 12:02:40;;;;;;;20.17;10.65;;;21.40;46.20;;;;;;5053944;28;20144;-64
2022/03/04 12:05:17;;;;;;;17.65;9.40;;;21.60;45.00;;;;;;5034604;28;20022;-64
2022/03/04 12:07:48;;;;;;;19.27;10.00;;;21.70;44.50;;;;;;5035164;28;20032;-64
2022/03/04 12:10:16;;;;;;;18.67;10.02;;;21.80;44.60;;;;;;5035188;28;20037;-63
2022/03/04 12:13:05;;;;;;;18.17;9.82;;;21.80;44.40;;;;;;5034188;28;20021;-64
2022/03/04 12:15:37;;;;;;;19.65;9.45;;;22.00;44.00;;;;;;5035638;28;20022;-64
2022/03/04 12:18:28;;;;;;;20.30;10.95;;;22.10;44.10;;;;;;5035130;28;20112;-64
2022/03/04 12:21:13;;;;;;;19.52;10.13;;;22.00;43.40;;;;;;5035292;28;20034;-64
2022/03/04 12:23:42;;;;;;;19.45;10.40;;;21.90;43.80;;;;;;5034949;28;20050;-64
2022/03/04 12:26:20;;;;;;;19.98;10.35;;;22.00;43.80;;;;;;5033685;28;20029;-64
2022/03/04 12:28:48;;;;;;;19.75;10.02;;;22.20;44.50;;;;;;5035079;28;20024;-64
2022/03/04 12:31:16;;;;;;;20.27;11.05;;;22.40;43.30;;;;;;5034694;28;20407;-65
2022/03/04 12:33:47;;;;;;;19.48;10.13;;;22.50;44.00;;;;;;5034827;28;20462;-64
2022/03/04 12:36:16;;;;;;;19.02;9.85;;;22.40;43.60;;;;;;5035038;28;20110;-64
2022/03/04 12:38:47;;;;;;;18.20;9.65;;;22.30;43.40;;;;;;5034721;28;20038;-64